Ursa Minor — ICGH — position and weather

sailwx.info

Track history (hours):
 
Tides and Currents Weather Stations Pressure Air Temp Water Temp Dewpoint Dewpoint Depression Visibility Wind Speed Wind Dir Waves Ship Positions

Ursa Minor

Last reported at 2017-Jan-18 19:14 UTC. Time now 2017-Jan-19 17:03 UTC.
Position N 38°32' E 015°32'.

Length 205 m; draft 9.1 m.

Type: Ship. MMSI: 247082300.

Date/timePositionNaut miles runAvg speedWind from/ knotsBaromVisibWave heightAir tempDewpointWater temp
2017-Jan-18 19:14N 38°32' E 015°32'810.5
2017-Jan-18 18:30N 38°25' E 015°37'9 9.9
2017-Jan-18 17:33N 38°16' E 015°42'9 9.2
2017-Jan-18 16:33N 38°08' E 015°36'1010.3
2017-Jan-18 15:33N 37°58' E 015°38'156 8.7
2017-Jan-17 21:32N 40°19' E 017°06'10 9.7
2017-Jan-17 20:33N 40°28' E 017°06'3 3.5
2017-Jan-17 19:33N 40°30' E 017°10'0 0.1
2017-Jan-17 18:32N 40°30' E 017°10'0 0.0
2017-Jan-17 17:31N 40°30' E 017°10'0 0.0
2017-Jan-17 16:31N 40°30' E 017°10'0 0.0
2017-Jan-17 15:31N 40°30' E 017°10'0 0.0
2017-Jan-17 14:31N 40°30' E 017°10'0 0.0
2017-Jan-17 13:31N 40°30' E 017°10'0 0.0
2017-Jan-17 12:31N 40°30' E 017°10'0 0.0
2017-Jan-17 11:31N 40°30' E 017°10'0 0.0
2017-Jan-17 10:31N 40°30' E 017°10'0 0.0
2017-Jan-17 09:33N 40°30' E 017°10'0 0.0
2017-Jan-17 08:33N 40°30' E 017°10'0 0.0
2017-Jan-17 07:33N 40°30' E 017°10'169 5.5
2017-Jan-16 00:33N 37°55' E 015°41'1110.8
2017-Jan-15 23:33N 38°05' E 015°35'1010.0
2017-Jan-15 22:33N 38°15' E 015°38'10 9.5
2017-Jan-15 21:33N 38°24' E 015°37'1211.1
2017-Jan-15 20:28N 38°35' E 015°30'1010.9
2017-Jan-15 19:32N 38°43' E 015°23'1210.9
2017-Jan-15 18:26N 38°54' E 015°15'36210.7
2017-Jan-14 08:33N 43°29' E 010°02'1111.1
2017-Jan-14 07:33N 43°37' E 009°52'1110.7
2017-Jan-14 06:33N 43°45' E 009°42'1110.7
2017-Jan-14 05:33N 43°53' E 009°32'1110.6
2017-Jan-14 04:33N 44°01' E 009°22'1010.3
2017-Jan-14 03:33N 44°08' E 009°12'21 5.3
2017-Jan-13 23:31N 44°24' E 008°52'0 0.0
2017-Jan-13 22:31N 44°24' E 008°52'0 0.0
2017-Jan-13 21:31N 44°24' E 008°52'0 0.0
2017-Jan-13 20:33N 44°24' E 008°52'0 0.2
2017-Jan-13 19:33N 44°24' E 008°52'0 0.0
2017-Jan-13 18:33N 44°24' E 008°52'3 2.9
2017-Jan-13 17:33N 44°23' E 008°56'6 5.6
2017-Jan-13 16:33N 44°19' E 009°01'9 9.5
2017-Jan-13 15:33N 44°12' E 009°10'9 9.3
2017-Jan-13 14:33N 44°06' E 009°20'9 8.9
2017-Jan-13 13:33N 43°60' E 009°29'9 8.7
2017-Jan-13 12:33N 43°54' E 009°38'9 8.7
2017-Jan-13 11:33N 43°49' E 009°47'8 7.8
2017-Jan-13 10:33N 43°43' E 009°54'8 8.3
2017-Jan-13 09:33N 43°34' E 009°56'7 6.7
2017-Jan-13 08:33N 43°29' E 010°02'8 7.7
2017-Jan-13 07:33N 43°23' E 010°08'9 8.6
2017-Jan-13 06:33N 43°15' E 010°13'36710.4
2017-Jan-11 19:06N 38°48' E 015°48'711.2
2017-Jan-11 18:30N 38°42' E 015°47'1111.2
2017-Jan-11 17:33N 38°31' E 015°45'1110.8
2017-Jan-11 16:33N 38°21' E 015°43'1111.0
2017-Jan-11 15:33N 38°11' E 015°37'1110.8
2017-Jan-11 14:33N 38°00' E 015°37'154 9.1
2017-Jan-10 21:32N 40°18' E 017°06'1110.7
2017-Jan-10 20:33N 40°28' E 017°06'4 3.6
2017-Jan-10 19:33N 40°30' E 017°10'0 0.0
2017-Jan-10 18:33N 40°30' E 017°10'0 0.0
2017-Jan-10 17:28N 40°30' E 017°10'0 0.0
2017-Jan-10 16:28N 40°30' E 017°10'0 0.1
2017-Jan-10 15:28N 40°30' E 017°10'0 0.0
2017-Jan-10 14:31N 40°30' E 017°10'0 0.0
2017-Jan-10 13:31N 40°30' E 017°10'0 0.0
2017-Jan-10 12:31N 40°30' E 017°10'0 0.0
2017-Jan-10 11:31N 40°30' E 017°10'0 0.0
2017-Jan-10 10:28N 40°30' E 017°10'0 0.0
2017-Jan-10 09:28N 40°30' E 017°10'0 0.0
2017-Jan-10 08:33N 40°30' E 017°10'0 0.0
2017-Jan-10 07:33N 40°30' E 017°10'0 0.0
2017-Jan-10 06:33N 40°30' E 017°10'0 0.0
2017-Jan-10 05:33N 40°30' E 017°10'0 0.0
2017-Jan-10 04:33N 40°30' E 017°10'0 0.0
2017-Jan-10 03:33N 40°30' E 017°10'0 0.0
2017-Jan-10 02:33N 40°30' E 017°10'0 0.0
2017-Jan-10 01:33N 40°30' E 017°10'0 0.0
2017-Jan-10 00:33N 40°30' E 017°10'0 0.0
2017-Jan-09 23:33N 40°30' E 017°10'0 0.0
2017-Jan-09 22:33N 40°30' E 017°10'0 0.0
2017-Jan-09 21:33N 40°30' E 017°10'0 0.0
2017-Jan-09 20:33N 40°30' E 017°10'0 0.0
2017-Jan-09 19:32N 40°30' E 017°10'0 0.0
2017-Jan-09 18:32N 40°30' E 017°10'0 0.0
2017-Jan-09 17:32N 40°30' E 017°10'0 0.0
2017-Jan-09 16:29N 40°30' E 017°10'0 0.0
2017-Jan-09 15:29N 40°30' E 017°10'0 0.0
2017-Jan-09 14:32N 40°30' E 017°10'0 0.0
2017-Jan-09 13:31N 40°30' E 017°10'0 0.0
2017-Jan-09 12:31N 40°30' E 017°10'0 0.0
2017-Jan-09 11:31N 40°30' E 017°10'0 0.0
2017-Jan-09 10:28N 40°30' E 017°10'0 0.0
2017-Jan-09 09:28N 40°30' E 017°10'0 0.0
2017-Jan-09 08:31N 40°30' E 017°10'  
Track history (hours):
 
Tides and Currents Weather Stations Pressure Air Temp Water Temp Dewpoint Dewpoint Depression Visibility Wind Speed Wind Dir Waves Ship Positions

Ursa Minor

Last reported at 2017-Jan-18 19:14 UTC. Time now 2017-Jan-19 17:03 UTC.
Position N 38°32' E 015°32'.

Length 205 m; draft 9.1 m.

Type: Ship. MMSI: 247082300.

Date/timePositionNaut miles runAvg speedWind from/ knotsBaromVisibWave heightAir tempDewpointWater temp
2017-Jan-18 19:14N 38°32' E 015°32'810.5
2017-Jan-18 18:30N 38°25' E 015°37'9 9.9
2017-Jan-18 17:33N 38°16' E 015°42'9 9.2
2017-Jan-18 16:33N 38°08' E 015°36'1010.3
2017-Jan-18 15:33N 37°58' E 015°38'156 8.7
2017-Jan-17 21:32N 40°19' E 017°06'10 9.7
2017-Jan-17 20:33N 40°28' E 017°06'3 3.5
2017-Jan-17 19:33N 40°30' E 017°10'0 0.1
2017-Jan-17 18:32N 40°30' E 017°10'0 0.0
2017-Jan-17 17:31N 40°30' E 017°10'0 0.0
2017-Jan-17 16:31N 40°30' E 017°10'0 0.0
2017-Jan-17 15:31N 40°30' E 017°10'0 0.0
2017-Jan-17 14:31N 40°30' E 017°10'0 0.0
2017-Jan-17 13:31N 40°30' E 017°10'0 0.0
2017-Jan-17 12:31N 40°30' E 017°10'0 0.0
2017-Jan-17 11:31N 40°30' E 017°10'0 0.0
2017-Jan-17 10:31N 40°30' E 017°10'0 0.0
2017-Jan-17 09:33N 40°30' E 017°10'0 0.0
2017-Jan-17 08:33N 40°30' E 017°10'0 0.0
2017-Jan-17 07:33N 40°30' E 017°10'169 5.5
2017-Jan-16 00:33N 37°55' E 015°41'1110.8
2017-Jan-15 23:33N 38°05' E 015°35'1010.0
2017-Jan-15 22:33N 38°15' E 015°38'10 9.5
2017-Jan-15 21:33N 38°24' E 015°37'1211.1
2017-Jan-15 20:28N 38°35' E 015°30'1010.9
2017-Jan-15 19:32N 38°43' E 015°23'1210.9
2017-Jan-15 18:26N 38°54' E 015°15'36210.7
2017-Jan-14 08:33N 43°29' E 010°02'1111.1
2017-Jan-14 07:33N 43°37' E 009°52'1110.7
2017-Jan-14 06:33N 43°45' E 009°42'1110.7
2017-Jan-14 05:33N 43°53' E 009°32'1110.6
2017-Jan-14 04:33N 44°01' E 009°22'1010.3
2017-Jan-14 03:33N 44°08' E 009°12'21 5.3
2017-Jan-13 23:31N 44°24' E 008°52'0 0.0
2017-Jan-13 22:31N 44°24' E 008°52'0 0.0
2017-Jan-13 21:31N 44°24' E 008°52'0 0.0
2017-Jan-13 20:33N 44°24' E 008°52'0 0.2
2017-Jan-13 19:33N 44°24' E 008°52'0 0.0
2017-Jan-13 18:33N 44°24' E 008°52'3 2.9
2017-Jan-13 17:33N 44°23' E 008°56'6 5.6
2017-Jan-13 16:33N 44°19' E 009°01'9 9.5
2017-Jan-13 15:33N 44°12' E 009°10'9 9.3
2017-Jan-13 14:33N 44°06' E 009°20'9 8.9
2017-Jan-13 13:33N 43°60' E 009°29'9 8.7
2017-Jan-13 12:33N 43°54' E 009°38'9 8.7
2017-Jan-13 11:33N 43°49' E 009°47'8 7.8
2017-Jan-13 10:33N 43°43' E 009°54'8 8.3
2017-Jan-13 09:33N 43°34' E 009°56'7 6.7
2017-Jan-13 08:33N 43°29' E 010°02'8 7.7
2017-Jan-13 07:33N 43°23' E 010°08'9 8.6
2017-Jan-13 06:33N 43°15' E 010°13'36710.4
2017-Jan-11 19:06N 38°48' E 015°48'711.2
2017-Jan-11 18:30N 38°42' E 015°47'1111.2
2017-Jan-11 17:33N 38°31' E 015°45'1110.8
2017-Jan-11 16:33N 38°21' E 015°43'1111.0
2017-Jan-11 15:33N 38°11' E 015°37'1110.8
2017-Jan-11 14:33N 38°00' E 015°37'154 9.1
2017-Jan-10 21:32N 40°18' E 017°06'1110.7
2017-Jan-10 20:33N 40°28' E 017°06'4 3.6
2017-Jan-10 19:33N 40°30' E 017°10'0 0.0
2017-Jan-10 18:33N 40°30' E 017°10'0 0.0
2017-Jan-10 17:28N 40°30' E 017°10'0 0.0
2017-Jan-10 16:28N 40°30' E 017°10'0 0.1
2017-Jan-10 15:28N 40°30' E 017°10'0 0.0
2017-Jan-10 14:31N 40°30' E 017°10'0 0.0
2017-Jan-10 13:31N 40°30' E 017°10'0 0.0
2017-Jan-10 12:31N 40°30' E 017°10'0 0.0
2017-Jan-10 11:31N 40°30' E 017°10'0 0.0
2017-Jan-10 10:28N 40°30' E 017°10'0 0.0
2017-Jan-10 09:28N 40°30' E 017°10'0 0.0
2017-Jan-10 08:33N 40°30' E 017°10'0 0.0
2017-Jan-10 07:33N 40°30' E 017°10'0 0.0
2017-Jan-10 06:33N 40°30' E 017°10'0 0.0
2017-Jan-10 05:33N 40°30' E 017°10'0 0.0
2017-Jan-10 04:33N 40°30' E 017°10'0 0.0
2017-Jan-10 03:33N 40°30' E 017°10'0 0.0
2017-Jan-10 02:33N 40°30' E 017°10'0 0.0
2017-Jan-10 01:33N 40°30' E 017°10'0 0.0
2017-Jan-10 00:33N 40°30' E 017°10'0 0.0
2017-Jan-09 23:33N 40°30' E 017°10'0 0.0
2017-Jan-09 22:33N 40°30' E 017°10'0 0.0
2017-Jan-09 21:33N 40°30' E 017°10'0 0.0
2017-Jan-09 20:33N 40°30' E 017°10'0 0.0
2017-Jan-09 19:32N 40°30' E 017°10'0 0.0
2017-Jan-09 18:32N 40°30' E 017°10'0 0.0
2017-Jan-09 17:32N 40°30' E 017°10'0 0.0
2017-Jan-09 16:29N 40°30' E 017°10'0 0.0
2017-Jan-09 15:29N 40°30' E 017°10'0 0.0
2017-Jan-09 14:32N 40°30' E 017°10'0 0.0
2017-Jan-09 13:31N 40°30' E 017°10'0 0.0
2017-Jan-09 12:31N 40°30' E 017°10'0 0.0
2017-Jan-09 11:31N 40°30' E 017°10'0 0.0
2017-Jan-09 10:28N 40°30' E 017°10'0 0.0
2017-Jan-09 09:28N 40°30' E 017°10'0 0.0
2017-Jan-09 08:31N 40°30' E 017°10'  

Dump ship's entire track history